createdAt,value
2023-04-27T00:00:33.781Z,79.33
2023-04-27T00:01:33.770Z,79.26
2023-04-27T00:02:33.916Z,79.26
2023-04-27T00:03:34.072Z,79.26
2023-04-27T00:04:33.930Z,79.26
2023-04-27T00:05:33.776Z,79.16
2023-04-27T00:06:33.709Z,78.85
2023-04-27T00:07:33.748Z,78.74
2023-04-27T00:08:33.691Z,78.85
2023-04-27T00:09:33.685Z,78.85
2023-04-27T00:10:33.675Z,78.85
2023-04-27T00:11:33.663Z,78.85
2023-04-27T00:12:33.665Z,78.85
2023-04-27T00:13:33.641Z,78.95
2023-04-27T00:14:33.629Z,78.85
2023-04-27T00:15:33.616Z,78.74
2023-04-27T00:16:33.682Z,78.85
2023-04-27T00:17:33.670Z,78.85
2023-04-27T00:18:33.577Z,78.64
2023-04-27T00:19:33.588Z,78.53
2023-04-27T00:20:33.551Z,78.85
2023-04-27T00:21:33.550Z,78.78
2023-04-27T00:22:33.575Z,78.88
2023-04-27T00:23:33.526Z,78.85
2023-04-27T00:24:33.511Z,78.67
2023-04-27T00:25:33.504Z,78.26
2023-04-27T00:26:33.490Z,78.67
2023-04-27T00:27:33.501Z,78.78
2023-04-27T00:28:33.474Z,78.99
2023-04-27T00:29:33.467Z,79.19
2023-04-27T00:30:33.455Z,79.30
2023-04-27T00:31:33.497Z,79.40
2023-04-27T00:32:33.456Z,79.40
2023-04-27T00:33:33.403Z,79.30
2023-04-27T00:34:33.395Z,79.30
2023-04-27T00:35:33.402Z,79.54
2023-04-27T00:36:33.381Z,79.64
2023-04-27T00:37:33.386Z,79.54
2023-04-27T00:38:33.353Z,79.44
2023-04-27T00:39:33.364Z,79.74
2023-04-27T00:40:33.328Z,79.85
2023-04-27T00:41:33.320Z,79.85
2023-04-27T00:42:33.325Z,79.85
2023-04-27T00:43:33.301Z,79.85
2023-04-27T00:44:33.281Z,79.85
2023-04-27T00:45:33.302Z,80.05
2023-04-27T00:46:33.311Z,80.16
2023-04-27T00:47:33.331Z,80.19
2023-04-27T00:48:33.240Z,80.30
2023-04-27T00:49:33.233Z,79.88
2023-04-27T00:50:33.225Z,80.09
2023-04-27T00:51:33.215Z,80.40
2023-04-27T00:52:33.317Z,80.61
2023-04-27T00:53:33.193Z,80.51
2023-04-27T00:54:33.173Z,80.51
2023-04-27T00:55:33.164Z,80.51
2023-04-27T00:56:33.148Z,80.54
2023-04-27T00:57:33.156Z,80.75
2023-04-27T00:58:33.174Z,80.96
2023-04-27T00:59:33.115Z,80.96
2023-04-27T01:00:33.107Z,81.27
2023-04-27T01:01:33.170Z,81.37
2023-04-27T01:02:33.229Z,81.58
2023-04-27T01:03:33.287Z,81.68
2023-04-27T01:04:33.227Z,81.72
2023-04-27T01:05:33.050Z,81.72
2023-04-27T01:06:33.030Z,81.72
2023-04-27T01:07:33.025Z,81.72
2023-04-27T01:08:33.030Z,81.72
2023-04-27T01:09:33.005Z,81.82
2023-04-27T01:10:33.008Z,81.87
2023-04-27T01:11:32.979Z,81.97
2023-04-27T01:12:32.963Z,82.07
2023-04-27T01:13:32.956Z,82.07
2023-04-27T01:14:33.010Z,82.18
2023-04-27T01:15:32.955Z,82.32
2023-04-27T01:16:32.958Z,82.42
2023-04-27T01:17:32.937Z,82.42
2023-04-27T01:18:32.899Z,82.53
2023-04-27T01:19:32.884Z,82.63
2023-04-27T01:20:32.905Z,82.73
2023-04-27T01:21:32.905Z,82.63
2023-04-27T01:22:32.858Z,82.63
2023-04-27T01:23:32.846Z,82.84
2023-04-27T01:24:32.838Z,82.98
2023-04-27T01:25:32.822Z,83.08
2023-04-27T01:26:32.820Z,83.18
2023-04-27T01:27:32.823Z,83.18
2023-04-27T01:28:32.837Z,83.29
2023-04-27T01:29:32.781Z,83.29
2023-04-27T01:30:32.760Z,83.29
2023-04-27T01:31:32.776Z,83.39
2023-04-27T01:32:32.756Z,83.81
2023-04-27T01:33:32.779Z,83.95
2023-04-27T01:34:32.717Z,83.95
2023-04-27T01:35:32.710Z,83.95
2023-04-27T01:36:32.701Z,84.05
2023-04-27T01:37:32.690Z,84.16
2023-04-27T01:38:32.668Z,84.16
2023-04-27T01:39:32.697Z,84.16
2023-04-27T01:40:32.665Z,84.05
2023-04-27T01:41:32.643Z,83.95
2023-04-27T01:42:32.645Z,84.16
2023-04-27T01:43:32.625Z,84.37
2023-04-27T01:44:32.614Z,84.37
2023-04-27T01:45:32.627Z,84.61
2023-04-27T01:46:32.633Z,84.72
2023-04-27T01:47:32.601Z,84.72
2023-04-27T01:48:32.562Z,84.72
2023-04-27T01:49:32.557Z,84.72
2023-04-27T01:50:32.539Z,84.61
2023-04-27T01:51:32.567Z,84.61
2023-04-27T01:52:32.535Z,84.61
2023-04-27T01:53:32.581Z,84.61
2023-04-27T01:54:32.506Z,84.72
2023-04-27T01:55:32.491Z,84.82
2023-04-27T01:56:32.487Z,84.82
2023-04-27T01:57:32.489Z,84.82
2023-04-27T01:58:32.479Z,84.72
2023-04-27T01:59:32.444Z,84.61
2023-04-27T02:00:32.457Z,84.72
2023-04-27T02:01:32.431Z,84.75
2023-04-27T02:02:32.568Z,84.86
2023-04-27T02:03:32.646Z,84.75
2023-04-27T02:04:32.560Z,84.86
2023-04-27T02:05:32.387Z,84.86
2023-04-27T02:06:32.372Z,84.86
2023-04-27T02:07:32.357Z,84.96
2023-04-27T02:08:32.371Z,84.86
2023-04-27T02:09:32.333Z,84.75
2023-04-27T02:10:32.343Z,84.65
2023-04-27T02:11:32.330Z,84.55
2023-04-27T02:12:32.307Z,84.44
2023-04-27T02:13:32.303Z,84.55
2023-04-27T02:14:32.300Z,84.55
2023-04-27T02:15:32.275Z,84.55
2023-04-27T02:16:32.306Z,84.65
2023-04-27T02:17:32.252Z,84.80
2023-04-27T02:18:32.272Z,84.80
2023-04-27T02:19:32.226Z,84.80
2023-04-27T02:20:32.212Z,84.69
2023-04-27T02:21:32.204Z,84.69
2023-04-27T02:22:32.191Z,84.80
2023-04-27T02:23:32.193Z,85.11
2023-04-27T02:24:32.172Z,85.52
2023-04-27T02:25:32.156Z,85.83
2023-04-27T02:26:32.137Z,85.94
2023-04-27T02:27:32.132Z,85.94
2023-04-27T02:28:32.165Z,86.04
2023-04-27T02:29:32.106Z,86.19
2023-04-27T02:30:32.105Z,86.29
2023-04-27T02:31:32.091Z,86.19
2023-04-27T02:32:32.102Z,86.19
2023-04-27T02:33:32.097Z,86.19
2023-04-27T02:34:32.057Z,86.29
2023-04-27T02:35:32.035Z,86.29
2023-04-27T02:36:32.032Z,86.19
2023-04-27T02:37:32.065Z,86.19
2023-04-27T02:38:32.031Z,86.08
2023-04-27T02:39:32.003Z,85.98
2023-04-27T02:40:31.990Z,85.98
2023-04-27T02:41:31.967Z,85.98
2023-04-27T02:42:31.967Z,85.98
2023-04-27T02:43:31.970Z,86.12
2023-04-27T02:44:31.946Z,86.12
2023-04-27T02:45:31.934Z,86.22
2023-04-27T02:46:31.950Z,86.33
2023-04-27T02:47:31.945Z,86.43
2023-04-27T02:48:31.926Z,86.33
2023-04-27T02:49:31.877Z,86.33
2023-04-27T02:50:31.882Z,86.33
2023-04-27T02:51:31.854Z,86.33
2023-04-27T02:52:31.847Z,86.22
2023-04-27T02:53:31.859Z,86.22
2023-04-27T02:54:31.829Z,86.33
2023-04-27T02:55:31.834Z,86.33
2023-04-27T02:56:31.805Z,86.54
2023-04-27T02:57:31.790Z,86.54
2023-04-27T02:58:31.839Z,86.58
2023-04-27T02:59:31.761Z,86.68
2023-04-27T03:00:31.763Z,86.89
2023-04-27T03:01:31.801Z,87.10
2023-04-27T03:02:31.774Z,87.10
2023-04-27T03:03:31.832Z,87.10
2023-04-27T03:04:31.788Z,87.20
2023-04-27T03:05:31.747Z,87.41
2023-04-27T03:06:31.681Z,87.41
2023-04-27T03:07:31.708Z,87.30
2023-04-27T03:08:31.700Z,87.52
2023-04-27T03:09:31.656Z,87.52
2023-04-27T03:10:31.645Z,87.62
2023-04-27T03:11:31.648Z,87.62
2023-04-27T03:12:31.626Z,87.62
2023-04-27T03:13:31.624Z,87.62
2023-04-27T03:14:31.607Z,87.62
2023-04-27T03:15:31.578Z,87.62
2023-04-27T03:16:31.624Z,87.62
2023-04-27T03:17:31.601Z,87.62
2023-04-27T03:18:31.583Z,87.52
2023-04-27T03:19:31.538Z,87.30
2023-04-27T03:20:31.532Z,87.10
2023-04-27T03:21:31.519Z,87.10
2023-04-27T03:22:31.512Z,87.20
2023-04-27T03:23:31.516Z,86.99
2023-04-27T03:24:31.488Z,86.89
2023-04-27T03:25:31.471Z,86.83
2023-04-27T03:26:31.471Z,86.79
2023-04-27T03:27:31.449Z,86.72
2023-04-27T03:28:31.468Z,86.61
2023-04-27T03:29:31.440Z,86.51
2023-04-27T03:30:31.426Z,86.51
2023-04-27T03:31:31.485Z,86.51
2023-04-27T03:32:31.444Z,86.72
2023-04-27T03:33:31.408Z,86.83
2023-04-27T03:34:31.371Z,86.93
2023-04-27T03:35:31.364Z,86.83
2023-04-27T03:36:31.354Z,86.83
2023-04-27T03:37:31.356Z,86.83
2023-04-27T03:38:31.353Z,86.93
2023-04-27T03:39:31.324Z,87.04
2023-04-27T03:40:31.318Z,87.14
2023-04-27T03:41:31.295Z,87.24
2023-04-27T03:42:31.295Z,87.35
2023-04-27T03:43:31.293Z,87.24
2023-04-27T03:44:31.267Z,87.24
2023-04-27T03:45:31.260Z,87.24
2023-04-27T03:46:31.272Z,87.28
2023-04-27T03:47:31.259Z,87.28
2023-04-27T03:48:31.237Z,87.28
2023-04-27T03:49:31.209Z,87.39
2023-04-27T03:50:31.195Z,87.49
2023-04-27T03:51:31.192Z,87.49
2023-04-27T03:52:31.169Z,87.49
2023-04-27T03:53:31.190Z,87.49
2023-04-27T03:54:31.150Z,87.49
2023-04-27T03:55:31.141Z,87.49
2023-04-27T03:56:31.125Z,87.49
2023-04-27T03:57:31.178Z,87.49
2023-04-27T03:58:31.127Z,87.49
2023-04-27T03:59:31.102Z,87.49
2023-04-27T04:00:31.081Z,87.49
2023-04-27T04:01:31.078Z,87.39
2023-04-27T04:02:31.183Z,87.28
2023-04-27T04:03:31.295Z,87.28
2023-04-27T04:04:31.220Z,87.28
2023-04-27T04:05:31.034Z,87.39
2023-04-27T04:06:31.025Z,87.39
2023-04-27T04:07:31.010Z,87.49
2023-04-27T04:08:31.011Z,87.49
2023-04-27T04:09:30.990Z,87.60
2023-04-27T04:10:30.970Z,87.60
2023-04-27T04:11:30.976Z,87.60
2023-04-27T04:12:30.944Z,87.49
2023-04-27T04:13:30.960Z,87.49
2023-04-27T04:14:30.923Z,87.49
2023-04-27T04:15:30.951Z,87.39
2023-04-27T04:16:30.928Z,87.39
2023-04-27T04:17:30.936Z,87.39
2023-04-27T04:18:30.965Z,87.39
2023-04-27T04:19:30.882Z,87.39
2023-04-27T04:20:30.853Z,87.39
2023-04-27T04:21:30.862Z,87.39
2023-04-27T04:22:30.833Z,87.39
2023-04-27T04:23:30.851Z,87.39
2023-04-27T04:24:30.818Z,87.28
2023-04-27T04:25:30.814Z,87.28
2023-04-27T04:26:30.801Z,87.28
2023-04-27T04:27:30.801Z,87.07
2023-04-27T04:28:30.805Z,87.07
2023-04-27T04:29:30.762Z,86.97
2023-04-27T04:30:30.751Z,86.97
2023-04-27T04:31:30.761Z,87.07
2023-04-27T04:32:30.724Z,87.07
2023-04-27T04:33:30.743Z,87.07
2023-04-27T04:34:30.699Z,86.97
2023-04-27T04:35:30.700Z,86.97
2023-04-27T04:36:30.686Z,86.97
2023-04-27T04:37:30.680Z,86.87
2023-04-27T04:38:30.680Z,86.97
2023-04-27T04:39:30.659Z,86.87
2023-04-27T04:40:30.639Z,86.87
2023-04-27T04:41:30.624Z,86.76
2023-04-27T04:42:30.614Z,86.76
2023-04-27T04:43:30.630Z,86.97
2023-04-27T04:44:30.587Z,87.18
2023-04-27T04:45:30.592Z,87.39
2023-04-27T04:46:30.665Z,87.49
2023-04-27T04:47:30.610Z,87.70
2023-04-27T04:48:30.567Z,87.66
2023-04-27T04:49:30.537Z,87.55
2023-04-27T04:50:30.528Z,87.45
2023-04-27T04:51:30.521Z,87.45
2023-04-27T04:52:30.498Z,87.45
2023-04-27T04:53:30.513Z,87.45
2023-04-27T04:54:30.482Z,87.45
2023-04-27T04:55:30.500Z,87.45
2023-04-27T04:56:30.460Z,87.45
2023-04-27T04:57:30.453Z,87.30
2023-04-27T04:58:30.463Z,87.20
2023-04-27T04:59:32.038Z,87.20
2023-04-27T05:00:30.419Z,87.20
2023-04-27T05:01:30.430Z,87.20
2023-04-27T05:02:30.510Z,87.20
2023-04-27T05:03:30.635Z,87.20
2023-04-27T05:04:30.575Z,87.06
2023-04-27T05:05:30.362Z,87.16
2023-04-27T05:06:30.345Z,87.16
2023-04-27T05:07:30.349Z,87.16
2023-04-27T05:08:30.394Z,87.06
2023-04-27T05:09:30.325Z,87.02
2023-04-27T05:10:30.294Z,87.12
2023-04-27T05:11:30.301Z,87.12
2023-04-27T05:12:30.289Z,87.12
2023-04-27T05:13:30.296Z,87.23
2023-04-27T05:14:30.265Z,87.23
2023-04-27T05:15:30.252Z,87.08
2023-04-27T05:16:30.272Z,87.08
2023-04-27T05:17:30.292Z,87.08
2023-04-27T05:18:30.425Z,86.98
2023-04-27T05:19:30.231Z,87.08
2023-04-27T05:20:30.203Z,86.94
2023-04-27T05:21:30.232Z,86.94
2023-04-27T05:22:30.178Z,86.83
2023-04-27T05:23:30.197Z,86.73
2023-04-27T05:24:30.149Z,86.59
2023-04-27T05:25:30.135Z,86.59
2023-04-27T05:26:30.126Z,86.80
2023-04-27T05:27:30.115Z,86.86
2023-04-27T05:28:30.137Z,86.86
2023-04-27T05:29:30.095Z,86.86
2023-04-27T05:30:30.089Z,86.65
2023-04-27T05:31:30.122Z,86.55
2023-04-27T05:32:30.068Z,86.41
2023-04-27T05:33:30.070Z,86.19
2023-04-27T05:34:30.036Z,86.19
2023-04-27T05:35:30.037Z,86.36
2023-04-27T05:36:30.010Z,86.47
2023-04-27T05:37:30.004Z,86.36
2023-04-27T05:38:30.001Z,85.85
2023-04-27T05:39:29.983Z,85.74
2023-04-27T05:40:29.970Z,85.71
2023-04-27T05:41:29.960Z,85.81
2023-04-27T05:42:29.947Z,85.81
2023-04-27T05:43:29.971Z,85.77
2023-04-27T05:44:29.920Z,85.77
2023-04-27T05:45:29.955Z,85.56
2023-04-27T05:46:29.988Z,85.52
2023-04-27T05:47:29.903Z,85.52
2023-04-27T05:48:29.894Z,85.48
2023-04-27T05:49:29.863Z,85.27
2023-04-27T05:50:29.853Z,85.06
2023-04-27T05:51:29.845Z,84.65
2023-04-27T05:52:29.827Z,84.55
2023-04-27T05:53:29.840Z,84.41
2023-04-27T05:54:29.806Z,84.51
2023-04-27T05:55:29.801Z,84.37
2023-04-27T05:56:29.788Z,84.37
2023-04-27T05:57:29.780Z,84.47
2023-04-27T05:58:29.795Z,84.53
2023-04-27T05:59:29.766Z,84.22
2023-04-27T06:00:29.807Z,84.19
2023-04-27T06:01:29.743Z,83.98
2023-04-27T06:02:29.780Z,83.77
2023-04-27T06:03:29.841Z,83.15
2023-04-27T06:04:29.861Z,83.15
2023-04-27T06:05:29.757Z,83.11
2023-04-27T06:06:29.669Z,83.32
2023-04-27T06:07:29.675Z,83.49
2023-04-27T06:08:29.685Z,83.49
2023-04-27T06:09:29.653Z,83.28
2023-04-27T06:10:29.626Z,83.14
2023-04-27T06:11:29.624Z,82.62
2023-04-27T06:12:29.611Z,82.31
2023-04-27T06:13:29.617Z,82.10
2023-04-27T06:14:29.588Z,82.07
2023-04-27T06:15:29.586Z,81.86
2023-04-27T06:16:29.764Z,81.93
2023-04-27T06:17:29.587Z,81.00
2023-04-27T06:18:29.563Z,80.07
2023-04-27T06:19:29.553Z,80.07
2023-04-27T06:20:29.545Z,78.52
2023-04-27T06:21:29.529Z,78.28
2023-04-27T06:22:29.489Z,78.59
2023-04-27T06:23:29.506Z,78.55
2023-04-27T06:24:29.466Z,78.34
2023-04-27T06:25:29.487Z,77.94
2023-04-27T06:26:29.454Z,76.66
2023-04-27T06:27:29.458Z,76.04
2023-04-27T06:28:29.459Z,74.71
2023-04-27T06:29:29.414Z,73.05
2023-04-27T06:30:29.414Z,72.81
2023-04-27T06:31:29.454Z,71.89
2023-04-27T06:32:29.430Z,71.99
2023-04-27T06:33:29.454Z,72.41
2023-04-27T06:34:29.365Z,70.76
2023-04-27T06:35:29.349Z,70.72
2023-04-27T06:36:29.331Z,71.34
2023-04-27T06:37:29.326Z,71.72
2023-04-27T06:38:29.336Z,71.14
2023-04-27T06:39:29.302Z,71.41
2023-04-27T06:40:29.291Z,71.62
2023-04-27T06:41:29.273Z,71.17
2023-04-27T06:42:29.263Z,70.45
2023-04-27T06:43:29.281Z,70.45
2023-04-27T06:44:29.240Z,69.53
2023-04-27T06:45:29.252Z,69.94
2023-04-27T06:46:29.304Z,69.94
2023-04-27T06:47:29.396Z,69.42
2023-04-27T06:48:29.217Z,69.22
2023-04-27T06:49:29.196Z,69.42
2023-04-27T06:50:29.224Z,69.84
2023-04-27T06:51:29.165Z,70.11
2023-04-27T06:52:29.153Z,70.18
2023-04-27T06:53:29.164Z,69.46
2023-04-27T06:54:29.130Z,69.18
2023-04-27T06:55:29.131Z,69.87
2023-04-27T06:56:29.106Z,69.56
2023-04-27T06:57:29.098Z,69.98
2023-04-27T06:58:29.118Z,69.64
2023-04-27T06:59:29.084Z,69.23
2023-04-27T07:00:29.062Z,68.71
2023-04-27T07:01:29.093Z,68.06
2023-04-27T07:02:29.087Z,67.76
2023-04-27T07:03:29.255Z,66.01
2023-04-27T07:04:29.109Z,65.80
2023-04-27T07:05:29.018Z,65.12
2023-04-27T07:06:28.999Z,65.83
2023-04-27T07:07:28.987Z,65.63
2023-04-27T07:08:28.997Z,66.22
2023-04-27T07:09:29.250Z,67.03
2023-04-27T07:10:28.945Z,67.93
2023-04-27T07:11:28.947Z,67.21
2023-04-27T07:12:28.933Z,65.77
2023-04-27T07:13:28.967Z,65.77
2023-04-27T07:14:28.901Z,66.77
2023-04-27T07:15:28.896Z,67.28
2023-04-27T07:16:28.906Z,66.16
2023-04-27T07:17:28.894Z,65.95
2023-04-27T07:18:28.906Z,65.03
2023-04-27T07:19:28.869Z,65.84
2023-04-27T07:20:28.839Z,65.03
2023-04-27T07:21:28.829Z,64.31
2023-04-27T07:22:28.824Z,65.23
2023-04-27T07:23:28.844Z,65.10
2023-04-27T07:24:28.794Z,65.10
2023-04-27T07:25:28.782Z,65.92
2023-04-27T07:26:28.760Z,64.69
2023-04-27T07:27:28.779Z,65.48
2023-04-27T07:28:28.762Z,65.07
2023-04-27T07:29:29.094Z,63.84
2023-04-27T07:30:28.724Z,64.42
2023-04-27T07:31:28.720Z,62.58
2023-04-27T07:32:28.762Z,62.27
2023-04-27T07:33:28.715Z,61.48
2023-04-27T07:34:35.018Z,61.99
2023-04-27T07:35:28.670Z,60.38
2023-04-27T07:36:28.650Z,60.89
2023-04-27T07:37:28.649Z,62.23
2023-04-27T07:38:28.649Z,62.12
2023-04-27T07:39:28.622Z,61.82
2023-04-27T07:40:28.617Z,61.13
2023-04-27T07:41:28.599Z,61.02
2023-04-27T07:42:28.595Z,62.98
2023-04-27T07:43:28.597Z,63.15
2023-04-27T07:44:28.551Z,63.94
2023-04-27T07:45:28.597Z,63.84
2023-04-27T07:46:28.533Z,62.58
2023-04-27T07:47:28.539Z,64.73
2023-04-27T07:48:28.675Z,62.24
2023-04-27T07:49:28.525Z,62.65
2023-04-27T07:50:28.505Z,64.87
2023-04-27T07:51:28.565Z,64.57
2023-04-27T07:52:28.463Z,62.39
2023-04-27T07:53:28.487Z,60.47
2023-04-27T07:54:28.451Z,59.76
2023-04-27T07:55:28.432Z,60.27
2023-04-27T07:56:28.417Z,62.29
2023-04-27T07:57:28.414Z,62.59
2023-04-27T07:58:28.422Z,61.98
2023-04-27T07:59:28.387Z,63.18
2023-04-27T08:00:28.386Z,63.18
2023-04-27T08:01:28.357Z,62.23
2023-04-27T08:02:28.461Z,58.86
2023-04-27T08:03:28.658Z,58.78
2023-04-27T08:04:28.698Z,60.01
2023-04-27T08:05:28.942Z,59.91
2023-04-27T08:06:28.756Z,60.21
2023-04-27T08:07:28.416Z,62.46
2023-04-27T08:08:28.308Z,61.44
2023-04-27T08:09:28.273Z,59.09
2023-04-27T08:10:28.264Z,58.68
2023-04-27T08:11:28.260Z,60.62
2023-04-27T08:12:28.244Z,59.78
2023-04-27T08:13:28.247Z,58.48
2023-04-27T08:14:28.219Z,57.45
2023-04-27T08:15:28.217Z,61.54
2023-04-27T08:16:28.237Z,58.17
2023-04-27T08:17:28.184Z,58.04
2023-04-27T08:18:28.216Z,56.71
2023-04-27T08:19:28.159Z,58.65
2023-04-27T08:20:28.152Z,57.70
2023-04-27T08:21:28.141Z,56.10
2023-04-27T08:22:28.144Z,57.12
2023-04-27T08:23:28.160Z,58.25
2023-04-27T08:24:28.123Z,57.43
2023-04-27T08:25:28.085Z,57.40
2023-04-27T08:26:28.096Z,57.32
2023-04-27T08:27:28.067Z,57.32
2023-04-27T08:28:28.095Z,59.34
2023-04-27T08:29:29.092Z,57.20
2023-04-27T08:30:28.039Z,56.81
2023-04-27T08:31:28.049Z,58.55
2023-04-27T08:32:28.082Z,56.30
2023-04-27T08:33:28.026Z,59.23
2023-04-27T08:34:28.004Z,57.20
2023-04-27T08:35:27.976Z,58.80
2023-04-27T08:36:27.978Z,54.74
2023-04-27T08:37:27.955Z,57.60
2023-04-27T08:38:27.972Z,57.07
2023-04-27T08:39:27.978Z,57.27
2023-04-27T08:40:27.931Z,58.06
2023-04-27T08:41:27.913Z,56.71
2023-04-27T08:42:27.903Z,56.20
2023-04-27T08:43:27.916Z,54.05
2023-04-27T08:44:27.884Z,57.39
2023-04-27T08:45:27.862Z,56.58
2023-04-27T08:46:27.880Z,55.15
2023-04-27T08:47:39.126Z,53.52
2023-04-27T08:48:27.881Z,53.72
2023-04-27T08:49:27.840Z,53.24
2023-04-27T08:50:27.817Z,52.67
2023-04-27T08:51:27.787Z,57.68
2023-04-27T08:52:27.861Z,57.45
2023-04-27T08:53:27.795Z,56.81
2023-04-27T08:54:27.817Z,53.14
2023-04-27T08:55:27.752Z,55.87
2023-04-27T08:56:27.749Z,52.73
2023-04-27T08:57:27.747Z,52.88
2023-04-27T08:58:27.751Z,55.91
2023-04-27T08:59:27.713Z,57.73
2023-04-27T09:00:27.721Z,51.51
2023-04-27T09:01:27.855Z,53.44
2023-04-27T09:02:27.747Z,54.46
2023-04-27T09:03:27.778Z,54.44
2023-04-27T09:04:27.741Z,54.72
2023-04-27T09:05:27.676Z,54.39
2023-04-27T09:06:27.678Z,53.16
2023-04-27T09:07:28.756Z,51.84
2023-04-27T09:08:27.625Z,53.98
2023-04-27T09:09:27.587Z,51.23
2023-04-27T09:10:27.597Z,52.53
2023-04-27T09:11:27.567Z,51.31
2023-04-27T09:12:27.562Z,49.68
2023-04-27T09:13:27.601Z,50.42
2023-04-27T09:14:27.537Z,48.38
2023-04-27T09:15:27.545Z,51.35
2023-04-27T09:16:27.553Z,53.78
2023-04-27T09:17:27.544Z,52.86
2023-04-27T09:18:27.505Z,52.96
2023-04-27T09:19:27.511Z,53.14
2023-04-27T09:20:27.633Z,54.16
2023-04-27T09:21:27.465Z,56.27
2023-04-27T09:22:27.449Z,58.87
2023-04-27T09:23:27.433Z,55.89
2023-04-27T09:24:27.449Z,52.76
2023-04-27T09:25:27.421Z,55.71
2023-04-27T09:26:27.412Z,52.86
2023-04-27T09:27:27.392Z,53.88
2023-04-27T09:28:27.393Z,55.20
2023-04-27T09:29:27.388Z,54.36
2023-04-27T09:30:27.366Z,52.30
2023-04-27T09:31:27.375Z,54.54
2023-04-27T09:32:27.343Z,53.32
2023-04-27T09:33:27.325Z,54.11
2023-04-27T09:34:27.335Z,54.28
2023-04-27T09:35:27.300Z,52.63
2023-04-27T09:36:27.290Z,53.04
2023-04-27T09:37:27.287Z,50.78
2023-04-27T09:38:27.267Z,54.11
2023-04-27T09:39:27.267Z,50.15
2023-04-27T09:40:27.246Z,48.11
2023-04-27T09:41:27.240Z,48.32
2023-04-27T09:42:27.226Z,50.86
2023-04-27T09:43:27.206Z,48.02
2023-04-27T09:44:27.225Z,45.70
2023-04-27T09:45:27.199Z,44.83
2023-04-27T09:46:27.255Z,49.28
2023-04-27T09:47:27.233Z,51.62
2023-04-27T09:48:27.164Z,50.17
2023-04-27T09:49:27.161Z,48.04
2023-04-27T09:50:27.143Z,48.14
2023-04-27T09:51:27.108Z,48.97
2023-04-27T09:52:27.096Z,50.98
2023-04-27T09:53:27.092Z,49.66
2023-04-27T09:54:27.100Z,51.95
2023-04-27T09:55:27.067Z,47.49
2023-04-27T09:56:27.054Z,48.78
2023-04-27T09:57:27.039Z,46.33
2023-04-27T09:58:27.061Z,46.94
2023-04-27T09:59:27.040Z,49.75
2023-04-27T10:00:27.016Z,47.22
2023-04-27T10:01:27.070Z,44.81
2023-04-27T10:02:27.099Z,47.54
2023-04-27T10:03:27.080Z,46.04
2023-04-27T10:04:27.184Z,46.35
2023-04-27T10:05:27.021Z,46.14
2023-04-27T10:06:26.950Z,46.25
2023-04-27T10:07:26.927Z,48.38
2023-04-27T10:08:26.940Z,47.34
2023-04-27T10:09:26.943Z,44.42
2023-04-27T10:10:26.894Z,45.03
2023-04-27T10:11:26.896Z,45.29
2023-04-27T10:12:26.894Z,46.66
2023-04-27T10:13:26.858Z,44.26
2023-04-27T10:14:26.874Z,45.40
2023-04-27T10:15:26.844Z,48.46
2023-04-27T10:16:26.859Z,45.71
2023-04-27T10:17:26.984Z,48.33
2023-04-27T10:18:26.807Z,49.12
2023-04-27T10:19:26.814Z,52.05
2023-04-27T10:20:26.782Z,49.05
2023-04-27T10:21:26.774Z,49.64
2023-04-27T10:22:26.764Z,49.84
2023-04-27T10:23:26.773Z,46.27
2023-04-27T10:24:26.758Z,43.53
2023-04-27T10:25:26.727Z,43.04
2023-04-27T10:26:26.752Z,46.88
2023-04-27T10:27:26.705Z,48.48
2023-04-27T10:28:26.697Z,43.41
2023-04-27T10:29:26.695Z,44.34
2023-04-27T10:30:26.678Z,48.10
2023-04-27T10:31:26.748Z,43.81
2023-04-27T10:32:26.683Z,44.82
2023-04-27T10:33:26.633Z,42.29
2023-04-27T10:34:26.666Z,41.17
2023-04-27T10:35:26.629Z,42.49
2023-04-27T10:36:26.618Z,45.62
2023-04-27T10:37:26.588Z,45.51
2023-04-27T10:38:26.595Z,46.61
2023-04-27T10:39:39.774Z,46.38
2023-04-27T10:40:26.569Z,43.93
2023-04-27T10:41:26.560Z,41.20
2023-04-27T10:42:26.546Z,44.26
2023-04-27T10:43:26.573Z,43.73
2023-04-27T10:44:26.543Z,42.54
2023-04-27T10:45:28.462Z,41.14
2023-04-27T10:46:26.527Z,42.15
2023-04-27T10:47:26.538Z,39.96
2023-04-27T10:48:26.520Z,43.44
2023-04-27T10:49:26.476Z,46.67
2023-04-27T10:50:26.466Z,47.06
2023-04-27T10:51:26.435Z,46.22
2023-04-27T10:52:26.429Z,45.79
2023-04-27T10:53:26.420Z,43.77
2023-04-27T10:54:26.423Z,42.94
2023-04-27T10:55:26.388Z,44.56
2023-04-27T10:56:26.388Z,51.02
2023-04-27T10:57:26.366Z,43.12
2023-04-27T10:58:34.623Z,44.92
2023-04-27T10:59:26.380Z,45.43
2023-04-27T11:00:26.344Z,46.22
2023-04-27T11:01:26.409Z,43.79
2023-04-27T11:02:26.382Z,44.52
2023-04-27T11:03:26.349Z,44.60
2023-04-27T11:04:26.335Z,42.69
2023-04-27T11:05:26.285Z,44.84
2023-04-27T11:06:26.285Z,44.64
2023-04-27T11:07:26.261Z,46.97
2023-04-27T11:08:26.270Z,43.23
2023-04-27T11:09:26.298Z,46.04
2023-04-27T11:10:26.293Z,45.31
2023-04-27T11:11:26.223Z,45.10
2023-04-27T11:12:26.199Z,42.58
2023-04-27T11:13:26.221Z,41.02
2023-04-27T11:14:26.197Z,41.16
2023-04-27T11:15:26.162Z,43.73
2023-04-27T11:16:26.236Z,45.15
2023-04-27T11:17:26.187Z,45.76
2023-04-27T11:18:26.134Z,44.85
2023-04-27T11:19:26.137Z,45.05
2023-04-27T11:20:26.116Z,45.42
2023-04-27T11:21:26.098Z,46.30
2023-04-27T11:22:26.090Z,41.05
2023-04-27T11:23:26.114Z,44.99
2023-04-27T11:24:26.102Z,45.90
2023-04-27T11:25:26.052Z,47.70
2023-04-27T11:26:26.039Z,44.13
2023-04-27T11:27:26.027Z,43.85
2023-04-27T11:28:26.023Z,41.52
2023-04-27T11:29:26.026Z,43.65
2023-04-27T11:30:25.999Z,41.80
2023-04-27T11:31:26.064Z,44.92
2023-04-27T11:32:26.036Z,43.91
2023-04-27T11:33:25.954Z,41.77
2023-04-27T11:34:25.968Z,44.20
2023-04-27T11:35:25.935Z,40.49
2023-04-27T11:36:25.929Z,42.82
2023-04-27T11:37:25.916Z,41.14
2023-04-27T11:38:25.962Z,44.38
2023-04-27T11:39:25.964Z,41.14
2023-04-27T11:40:25.911Z,40.99
2023-04-27T11:41:25.866Z,40.40
2023-04-27T11:42:25.913Z,43.63
2023-04-27T11:43:25.849Z,42.31
2023-04-27T11:44:25.855Z,42.90
2023-04-27T11:45:25.826Z,44.27
2023-04-27T11:46:25.819Z,48.82
2023-04-27T11:47:25.963Z,39.51
2023-04-27T11:48:25.790Z,44.60
2023-04-27T11:49:25.864Z,48.31
2023-04-27T11:50:25.769Z,41.00
2023-04-27T11:51:25.801Z,40.39
2023-04-27T11:52:25.751Z,43.71
2023-04-27T11:53:25.746Z,44.52
2023-04-27T11:54:25.761Z,45.39
2023-04-27T11:55:25.707Z,39.73
2023-04-27T11:56:25.696Z,43.34
2023-04-27T11:57:25.702Z,45.45
2023-04-27T11:58:25.676Z,44.31
2023-04-27T11:59:25.688Z,42.27
2023-04-27T12:00:25.666Z,41.49
2023-04-27T12:01:37.095Z,43.20
2023-04-27T12:02:25.762Z,42.98
2023-04-27T12:03:25.841Z,42.15
2023-04-27T12:04:25.824Z,39.85
2023-04-27T12:05:25.695Z,41.06
2023-04-27T12:06:32.768Z,43.46
2023-04-27T12:07:25.585Z,44.25
2023-04-27T12:08:25.647Z,41.51
2023-04-27T12:09:25.583Z,41.09
2023-04-27T12:10:25.556Z,39.59
2023-04-27T12:11:25.529Z,38.89
2023-04-27T12:12:25.557Z,39.41
2023-04-27T12:13:25.503Z,41.02
2023-04-27T12:14:25.540Z,37.71
2023-04-27T12:15:25.473Z,42.24
2023-04-27T12:16:25.530Z,42.01
2023-04-27T12:17:25.488Z,42.72
2023-04-27T12:18:25.442Z,36.99
2023-04-27T12:19:25.480Z,40.14
2023-04-27T12:20:25.460Z,40.25
2023-04-27T12:21:25.422Z,40.96
2023-04-27T12:22:25.393Z,43.08
2023-04-27T12:23:25.393Z,39.75
2023-04-27T12:24:25.457Z,39.65
2023-04-27T12:25:25.370Z,42.88
2023-04-27T12:26:25.356Z,39.57
2023-04-27T12:27:25.345Z,37.59
2023-04-27T12:28:25.323Z,39.44
2023-04-27T12:29:25.348Z,41.08
2023-04-27T12:30:25.310Z,43.20
2023-04-27T12:31:27.550Z,43.69
2023-04-27T12:32:25.285Z,42.46
2023-04-27T12:33:25.288Z,41.75
2023-04-27T12:34:25.285Z,41.93
2023-04-27T12:35:25.252Z,41.63
2023-04-27T12:36:25.263Z,44.34
2023-04-27T12:37:26.937Z,43.79
2023-04-27T12:38:25.205Z,43.95
2023-04-27T12:39:25.345Z,41.20
2023-04-27T12:40:25.191Z,42.10
2023-04-27T12:41:25.180Z,41.17
2023-04-27T12:42:25.183Z,38.15
2023-04-27T12:43:25.158Z,38.95
2023-04-27T12:44:25.161Z,38.27
2023-04-27T12:45:25.151Z,37.87
2023-04-27T12:46:25.180Z,41.39
2023-04-27T12:47:43.134Z,41.99
2023-04-27T12:48:25.134Z,39.78
2023-04-27T12:49:25.107Z,39.28
2023-04-27T12:50:25.069Z,39.25
2023-04-27T12:51:25.088Z,39.14
2023-04-27T12:52:25.050Z,37.45